createdAt,value
2023-11-19T00:00:28.291Z,5.63
2023-11-19T01:02:04.388Z,7.63
2023-11-19T01:07:17.296Z,7.20
2023-11-19T01:18:30.881Z,6.70
2023-11-19T01:41:08.762Z,9.13
2023-11-19T01:46:16.939Z,8.30
2023-11-19T01:51:38.042Z,7.43
2023-11-19T01:56:29.157Z,3.40
2023-11-19T02:07:39.083Z,2.70
2023-11-19T02:12:41.445Z,3.17
2023-11-19T02:17:32.550Z,3.10
2023-11-19T02:23:09.715Z,4.60
2023-11-19T02:28:22.566Z,2.80
2023-11-19T02:33:14.190Z,2.83
2023-11-19T02:38:19.858Z,3.60
2023-11-19T02:43:20.515Z,3.37
2023-11-19T02:48:22.847Z,3.27
2023-11-19T02:53:17.611Z,3.67
2023-11-19T02:58:49.828Z,3.57
2023-11-19T03:03:42.137Z,3.30
2023-11-19T03:08:28.491Z,3.03
2023-11-19T03:24:23.465Z,2.20
2023-11-19T03:35:19.769Z,2.40
2023-11-19T03:40:30.057Z,2.27
2023-11-19T03:45:42.879Z,2.20
2023-11-19T03:50:51.176Z,2.67
2023-11-19T03:55:41.141Z,2.47
2023-11-19T04:00:37.744Z,2.23
2023-11-19T04:05:31.083Z,1.90
2023-11-19T04:10:30.605Z,1.80
2023-11-19T04:15:22.367Z,1.97
2023-11-19T04:20:35.565Z,1.93
2023-11-19T04:30:59.312Z,2.30
2023-11-19T04:35:46.220Z,2.07
2023-11-19T04:41:24.434Z,1.90
2023-11-19T04:52:03.269Z,1.77
2023-11-19T05:08:14.691Z,1.60
2023-11-19T05:13:36.333Z,2.10
2023-11-19T05:24:45.979Z,2.30
2023-11-19T05:42:06.658Z,2.83
2023-11-19T05:47:47.616Z,1.50
2023-11-19T06:04:45.805Z,1.97
2023-11-19T06:22:13.422Z,0.87
2023-11-19T06:27:32.919Z,1.00
2023-11-19T06:32:17.431Z,0.80
2023-11-19T06:37:05.684Z,0.90
2023-11-19T06:42:06.613Z,0.87
2023-11-19T06:47:16.081Z,0.50
2023-11-19T06:52:01.836Z,0.50
2023-11-19T06:57:04.305Z,0.63
2023-11-19T07:01:57.643Z,0.70
2023-11-19T07:07:28.679Z,0.40
2023-11-19T07:12:18.684Z,0.50
2023-11-19T07:17:22.986Z,0.60
2023-11-19T07:22:09.871Z,4.20
2023-11-19T07:27:32.551Z,1.43
2023-11-19T07:32:43.188Z,0.80
2023-11-19T07:37:39.291Z,1.07
2023-11-19T07:42:24.324Z,1.67
2023-11-19T07:47:14.012Z,1.00
2023-11-19T07:52:22.538Z,0.80
2023-11-19T08:03:27.266Z,0.73
2023-11-19T08:08:19.063Z,0.40
2023-11-19T08:13:21.277Z,0.93
2023-11-19T08:23:41.919Z,0.63
2023-11-19T08:28:50.932Z,5.03
2023-11-19T08:33:37.322Z,0.73
2023-11-19T08:38:51.492Z,0.57
2023-11-19T08:49:20.074Z,3.67
2023-11-19T08:54:09.242Z,0.93
2023-11-19T08:59:29.149Z,1.80
2023-11-19T09:04:31.459Z,4.57
2023-11-19T09:10:22.695Z,16.43
2023-11-19T09:15:30.321Z,3.50
2023-11-19T09:20:48.420Z,11.27
2023-11-19T09:25:53.160Z,6.93
2023-11-19T09:30:55.119Z,5.63
2023-11-19T09:36:29.465Z,2.53
2023-11-19T09:41:40.688Z,5.27
2023-11-19T09:46:58.628Z,2.63
2023-11-19T09:52:52.969Z,6.87
2023-11-19T09:57:57.011Z,2.40
2023-11-19T10:02:43.149Z,1.60
2023-11-19T10:07:28.937Z,2.40
2023-11-19T10:12:14.071Z,1.73
2023-11-19T10:17:05.488Z,2.47
2023-11-19T10:21:55.116Z,3.03
2023-11-19T10:26:39.264Z,1.80
2023-11-19T10:31:31.687Z,1.57
2023-11-19T10:36:47.197Z,2.10
2023-11-19T10:41:56.750Z,2.50
2023-11-19T10:46:56.368Z,3.57
2023-11-19T10:51:49.657Z,0.87
2023-11-19T10:57:02.254Z,0.97
2023-11-19T11:02:12.312Z,2.70
2023-11-19T11:07:00.013Z,1.53
2023-11-19T11:12:14.441Z,2.33
2023-11-19T11:17:08.840Z,2.60
2023-11-19T11:28:14.668Z,2.20
2023-11-19T11:33:36.812Z,2.90
2023-11-19T11:38:25.284Z,1.60
2023-11-19T11:43:45.307Z,5.23
2023-11-19T11:49:07.277Z,4.10
2023-11-19T11:53:51.089Z,2.20
2023-11-19T11:58:46.315Z,7.17
2023-11-19T12:03:45.704Z,3.90
2023-11-19T12:13:57.320Z,3.43
2023-11-19T12:18:44.156Z,4.13
2023-11-19T12:24:12.262Z,4.13
2023-11-19T12:34:40.811Z,6.77
2023-11-19T12:39:32.837Z,6.97
2023-11-19T12:44:28.265Z,5.67
2023-11-19T12:49:23.940Z,6.67
2023-11-19T12:54:07.697Z,4.23
2023-11-19T12:58:57.507Z,5.20
2023-11-19T13:03:42.162Z,4.90
2023-11-19T13:08:30.415Z,6.33
2023-11-19T13:14:10.334Z,6.20
2023-11-19T13:18:54.570Z,6.53
2023-11-19T13:23:59.118Z,6.70
2023-11-19T13:28:49.135Z,7.83
2023-11-19T13:34:11.950Z,5.73
2023-11-19T13:39:14.276Z,5.27
2023-11-19T13:43:58.161Z,7.77
2023-11-19T13:49:49.253Z,5.40
2023-11-19T13:55:46.147Z,8.67
2023-11-19T14:06:11.079Z,9.50
2023-11-19T14:11:13.623Z,5.13
2023-11-19T14:21:20.139Z,7.00
2023-11-19T14:26:27.271Z,8.40
2023-11-19T14:31:13.381Z,9.47
2023-11-19T14:42:09.931Z,7.57
2023-11-19T14:46:58.789Z,12.27
2023-11-19T14:52:37.136Z,9.70
2023-11-19T14:57:24.722Z,9.33
2023-11-19T15:13:39.041Z,7.20
2023-11-19T15:18:24.616Z,7.73
2023-11-19T15:23:11.765Z,5.83
2023-11-19T15:27:58.590Z,7.13
2023-11-19T15:38:12.957Z,14.77
2023-11-19T15:48:15.476Z,11.13
2023-11-19T15:53:24.786Z,14.77
2023-11-19T15:58:24.355Z,5.40
2023-11-19T16:03:10.871Z,7.97
2023-11-19T16:08:15.087Z,6.27
2023-11-19T16:13:23.230Z,9.03
2023-11-19T16:18:23.894Z,6.80
2023-11-19T16:23:11.819Z,9.37
2023-11-19T16:28:23.215Z,8.47
2023-11-19T16:34:10.036Z,4.10
2023-11-19T16:39:42.379Z,8.50
2023-11-19T16:44:33.209Z,6.13
2023-11-19T16:50:11.021Z,6.97
2023-11-19T16:55:12.497Z,7.67
2023-11-19T17:00:33.048Z,6.43
2023-11-19T17:05:21.597Z,9.47
2023-11-19T17:11:10.729Z,7.00
2023-11-19T17:16:01.922Z,8.67
2023-11-19T17:22:09.687Z,9.70
2023-11-19T17:31:45.350Z,10.03
2023-11-19T17:36:33.614Z,8.80
2023-11-19T17:41:25.821Z,8.23
2023-11-19T17:46:56.270Z,10.30
2023-11-19T17:52:03.797Z,8.97
2023-11-19T17:56:52.337Z,6.70
2023-11-19T18:01:57.226Z,9.60
2023-11-19T18:07:31.403Z,9.23
2023-11-19T18:13:39.127Z,5.93
2023-11-19T18:19:29.761Z,6.40
2023-11-19T18:24:19.383Z,6.43
2023-11-19T18:35:48.622Z,8.40
2023-11-19T18:41:37.723Z,9.67
2023-11-19T20:16:06.855Z,7.67
2023-11-19T20:32:36.317Z,6.37
2023-11-19T20:37:38.754Z,8.07
2023-11-19T20:43:28.707Z,5.03
2023-11-19T20:48:45.350Z,6.63
2023-11-19T20:53:49.634Z,4.37
2023-11-19T20:58:56.813Z,8.33
2023-11-19T21:03:47.617Z,8.43
2023-11-19T21:09:07.206Z,5.53
2023-11-19T21:14:44.072Z,15.03
2023-11-19T21:20:05.120Z,6.37
2023-11-19T21:25:27.527Z,6.50
2023-11-19T21:30:58.135Z,3.90
2023-11-19T21:36:55.388Z,5.33
2023-11-19T21:55:30.981Z,7.60
2023-11-19T22:00:37.479Z,6.10
2023-11-19T22:11:35.081Z,5.53
2023-11-19T22:16:49.504Z,3.80
2023-11-19T22:21:58.816Z,6.13
2023-11-19T22:27:03.605Z,5.50
2023-11-19T22:32:54.900Z,8.20
2023-11-19T22:37:53.617Z,6.77
2023-11-19T22:43:26.891Z,7.57
2023-11-19T22:48:32.484Z,6.43
2023-11-19T22:59:32.094Z,5.40
2023-11-19T23:10:55.983Z,6.10
2023-11-19T23:20:45.508Z,7.30
2023-11-19T23:26:02.916Z,7.00
2023-11-19T23:31:27.353Z,6.47
2023-11-19T23:36:16.294Z,5.97
2023-11-19T23:41:58.982Z,6.77
2023-11-19T23:52:48.925Z,9.40
2023-11-19T23:57:36.111Z,8.40
